»·PEaware :: N707CP KSBP-KRNO

N707CP :: KSBP-KRNO

FLIGHT INFORMATION

Flight Status: Arrived
Operator: Privately registered:
United States
More flights under this callsign
Pilot: Chase W. (8260)
Aircraft: ECLIPSE 500
(EA50)
More flights by this aircraft type
Origin: KSBP San Luis Co Regl
United States
Destination: KRNO Reno/Tahoe Intl
United States
More flights between these airports :: More routes between these airports
Route: +MQO V113 FMG
File this flight plan on PilotEdge
Remarks:
Altitude:
(Current/Filed)
17,000ft
Speed:
(Current/Filed)
300kts
Departed: 28-May-17 12:19 PM
Arrived: 28-May-17 01:37 PM
Distance/Time
Traveled:
259nm/1:18
Distance/Time
To Go:
Arrived

Flight Plot

Page will automatically refresh every two minutes.

Flight plan parsing failed; only flown route is shown


Map Options




Map Legend


Flown Route
Filed Route
Departure Airport
Arrival Airport
Navaid (VOR, NDB)
Fix

Horizontal Profiles

Position Reports

Time Latitude Longitude Heading Altitude Ground
Speed
28-May-17 12:08 35.238499 -120.638282 274 214ft 0kts
28-May-17 12:09 35.238499 -120.638282 274 214ft 0kts
28-May-17 12:10 35.238499 -120.638282 274 214ft 0kts
28-May-17 12:11 35.238499 -120.638282 274 214ft 0kts
28-May-17 12:12 35.238499 -120.638282 274 214ft 0kts
28-May-17 12:13 35.238499 -120.638282 274 214ft 0kts
28-May-17 12:14 35.238499 -120.638282 274 214ft 0kts
28-May-17 12:15 35.238499 -120.638282 274 214ft 0kts
28-May-17 12:16 35.238499 -120.638282 274 214ft 0kts
28-May-17 12:17 35.238499 -120.638282 274 214ft 0kts
28-May-17 12:18 35.237915 -120.638440 175 214ft 11kts
28-May-17 12:19 35.236863 -120.637988 128 214ft 20kts
28-May-17 12:20 35.233460 -120.632171 145 214ft 8kts
28-May-17 12:21 35.240722 -120.646937 304 465ft 142kts
28-May-17 12:22 35.250373 -120.687880 204 2225ft 163kts
28-May-17 12:23 35.226010 -120.652112 117 1483ft 142kts
28-May-17 12:24 35.220606 -120.621669 353 768ft 111kts
28-May-17 12:25 35.237581 -120.640929 354 214ft 10kts
28-May-17 12:26 35.237809 -120.640571 89 214ft 0kts
28-May-17 12:27 35.238520 -120.638990 87 214ft 6kts
28-May-17 12:28 35.238521 -120.638849 88 214ft 0kts
28-May-17 12:29 35.238521 -120.638849 88 214ft 0kts
28-May-17 12:30 35.238521 -120.638849 88 214ft 0kts
28-May-17 12:31 35.238485 -120.638769 133 214ft 4kts
28-May-17 12:32 35.237248 -120.638466 175 214ft 6kts
28-May-17 12:33 35.234262 -120.633486 127 214ft 23kts
28-May-17 12:34 35.236120 -120.638765 304 214ft 96kts
28-May-17 12:35 35.258531 -120.679538 303 2045ft 156kts
28-May-17 12:36 35.283412 -120.722707 303 4399ft 162kts
28-May-17 12:37 35.314838 -120.774252 303 5075ft 226kts
28-May-17 12:38 35.353344 -120.836343 314 6065ft 238kts
28-May-17 12:39 35.414035 -120.816263 29 7040ft 257kts
28-May-17 12:40 35.470655 -120.775541 31 8265ft 246kts
28-May-17 12:41 35.526277 -120.734926 32 9324ft 248kts
28-May-17 12:42 35.582807 -120.693374 34 10314ft 249kts
28-May-17 12:43 35.639997 -120.651185 35 11254ft 249kts
28-May-17 12:44 35.703091 -120.632104 1 12092ft 259kts
28-May-17 12:45 35.772427 -120.635994 359 12769ft 263kts
28-May-17 12:46 35.844256 -120.641182 358 13596ft 268kts
28-May-17 12:47 35.915136 -120.646703 357 14393ft 272kts
28-May-17 12:48 35.989852 -120.652646 357 15730ft 280kts
28-May-17 12:49 36.064788 -120.658687 356 16950ft 288kts
28-May-17 12:50 36.128812 -120.663928 355 16999ft 320kts
28-May-17 12:51 36.210102 -120.678802 350 16998ft 338kts
28-May-17 12:52 36.304647 -120.697270 350 16997ft 339kts
28-May-17 12:53 36.395382 -120.715150 350 16999ft 337kts
28-May-17 12:54 36.486418 -120.733157 350 17001ft 337kts
28-May-17 12:55 36.577396 -120.751201 350 17005ft 336kts
28-May-17 12:56 36.668177 -120.769252 350 17009ft 337kts
28-May-17 12:57 36.757158 -120.793499 343 17014ft 336kts
28-May-17 12:58 36.844864 -120.823603 343 17021ft 336kts
28-May-17 12:59 36.933870 -120.854461 343 17027ft 337kts
28-May-17 13:00 37.021626 -120.885027 343 17005ft 336kts
28-May-17 13:01 37.106643 -120.914723 343 16945ft 331kts
28-May-17 13:02 37.184433 -120.941932 343 16945ft 324kts
28-May-17 13:03 37.266123 -120.970571 343 16999ft 321kts
28-May-17 13:04 37.351131 -121.000444 343 17017ft 320kts
28-May-17 13:05 37.432401 -121.029073 343 17018ft 321kts
28-May-17 13:06 37.515782 -121.058513 343 17018ft 322kts
28-May-17 13:07 37.597668 -121.087488 343 17018ft 323kts
28-May-17 13:08 37.681397 -121.117184 343 17018ft 324kts
28-May-17 13:09 37.764679 -121.146792 343 17019ft 325kts
28-May-17 13:10 37.849294 -121.152732 24 17021ft 326kts
28-May-17 13:11 37.928992 -121.103233 28 17019ft 326kts
28-May-17 13:12 38.006580 -121.050735 29 17022ft 324kts
28-May-17 13:13 38.080743 -120.992586 45 17028ft 321kts
28-May-17 13:14 38.137570 -120.920304 46 17031ft 319kts
28-May-17 13:15 38.197852 -120.841698 46 17033ft 318kts
28-May-17 13:16 38.257996 -120.762574 47 17031ft 318kts
28-May-17 13:17 38.318076 -120.683203 47 17034ft 318kts
28-May-17 13:18 38.377583 -120.604352 47 17035ft 318kts
28-May-17 13:19 38.435988 -120.526763 47 17040ft 318kts
28-May-17 13:20 38.494919 -120.448275 47 17064ft 317kts
28-May-17 13:21 38.553247 -120.370391 47 17131ft 320kts
28-May-17 13:22 38.608871 -120.295937 47 17078ft 326kts
28-May-17 13:23 38.677536 -120.235595 29 17116ft 328kts
28-May-17 13:24 38.751783 -120.184923 28 17119ft 329kts
28-May-17 13:25 38.826741 -120.134392 28 17119ft 330kts
28-May-17 13:26 38.902982 -120.083138 28 17122ft 329kts
28-May-17 13:27 38.980172 -120.031087 29 17119ft 324kts
28-May-17 13:28 39.057163 -119.979066 29 17115ft 324kts
28-May-17 13:29 39.129376 -119.930194 29 17098ft 324kts
28-May-17 13:30 39.205691 -119.878447 29 17076ft 288kts
28-May-17 13:31 39.261689 -119.840332 28 14804ft 254kts
28-May-17 13:32 39.319272 -119.800346 29 11757ft 244kts
28-May-17 13:33 39.373771 -119.762124 28 8864ft 232kts
28-May-17 13:34 39.429829 -119.750475 359 5959ft 223kts
28-May-17 13:35 39.480402 -119.751326 1 5414ft 161kts
28-May-17 13:36 39.513068 -119.750564 1 5418ft 115kts
28-May-17 13:37 39.541310 -119.755933 271 5272ft 120kts
28-May-17 13:38 39.518441 -119.766622 181 4571ft 116kts
28-May-17 13:39 39.500191 -119.766745 180 4418ft 15kts
28-May-17 13:40 39.497823 -119.765278 8 4418ft 7kts
28-May-17 13:41 39.500579 -119.764713 91 4418ft 3kts

Navigation Log

Ident Type
Flight plan parsing failed, navigation log unavailable